Antioch, TX

9:08 PM CDT on May 05, 2015 (GMT -0500)
JOAQUIN Amateur Radio W5RYM | | Change Station
CLOSE
Current Station
Personal Weather Station
Location: Joaquin, TX
Elevation: 283 ft
Nearby Weather Stations

Elev 283 ft 31.91 °N, 94.08 °W | Updated 2 seconds ago

Partly Cloudy
Partly Cloudy
71.9 °F
Feels Like 74 °F
N
0.0
Wind Variable Wind from SE
Gusts 1.0 mph

Today
High -- | Low -- °F
--% Chance of Precip.
Yesterday
High -- | Low -- °F
Precip. -- in
6:27 AM 7:59 PM
Waning Gibbous, 96% visible
Pressure 30.01 in
Visibility -9999.0 miles
Clouds Clear
Heat Index 74 °F
Dew Point 63 °F
Humidity 74%
Rainfall 0.00 in
Snow Depth Not available.
UV 0 out of 12
Pollen 8.10 out of 12
Air Quality Not available.
Flu Activity Sporadic
METAR KOCH 060155Z AUTO 16006KT CLR 23/16 A3001 RMK AO1

More Conditions Fewer Conditions

Pressure 30.01 in
Visibility -9999.0 miles
Clouds Clear
Heat Index 74 °F
Dew Point 63 °F
Humidity 74%
Rainfall 0.00 in
Snow Depth Not available.
UV 0 out of 12
Pollen 8.10 out of 12
Air Quality Not available.
Flu Activity Sporadic
METAR KOCH 060155Z AUTO 16006KT CLR 23/16 A3001 RMK AO1

More Conditions Fewer Conditions

Nowcast | as of 6:53 PM CDT on May 5, 2015

A 30 mile wide area of showers and thunderstorms will continue to shift north across extreme northeast Texas and into McCurtain County Oklahoma...and possibly western Little River and Sevier counties in southwest Arkansas...during the next couple of hours. These showers and thunderstorms will affect the cities of DeKalb Texas...Idabel and Broken Bow Oklahoma during the next hour...with wind gusts to 35 mph and brief heavy rainfall...with amounts of up to a third of an inch possible. Elsewhere across East Texas and westcentral Louisiana...isolated showers and thunderstorms will be possible through mid evening...but should gradually diminish with the loss of daytime heating.

×

10-Day Weather Forecast

Almanac

Astronomy

May. 05, 2015 Rise Set
Actual Time
Civil Twilight
Nautical Twilight
Astronomical Twilight
Moon
Length of Visible Light
Length of Day
Tomorrow will be .
, % of the Moon is Illuminated

Today's Extremes

State Highs State Lows

Community

WunderPhotos

Upload Photos

1,819,040 photos uploaded!

WunderBlogs® & News

Nearby

Air Quality

  Air Quality AQ Index Pollutant
Not available.

Snow Depth

Station Depth Elevation

Earthquake Activity

City Distance Mag. Time & Date
Minimum magnitude displayed is 2.5.

Coastal Water Temperatures

Place Temperature

Stations

Nearby Weather Stations

Station Location Temp. Windchill Dew Point Humidity Wind Precip. Elev Updated Type